sensor_id;sensor_type;location;lat;lon;timestamp;temperature;humidity
43561;DHT22;32305;46.410;17.394;2024-01-15T00:00:27;20.60;28.90
43561;DHT22;32305;46.410;17.394;2024-01-15T00:02:54;20.60;28.90
43561;DHT22;32305;46.410;17.394;2024-01-15T00:05:21;20.60;28.90
43561;DHT22;32305;46.410;17.394;2024-01-15T00:07:48;20.60;28.80
43561;DHT22;32305;46.410;17.394;2024-01-15T00:10:14;20.60;28.80
43561;DHT22;32305;46.410;17.394;2024-01-15T00:12:41;20.60;28.90
43561;DHT22;32305;46.410;17.394;2024-01-15T00:15:08;20.60;28.90
43561;DHT22;32305;46.410;17.394;2024-01-15T00:17:35;20.60;28.90
43561;DHT22;32305;46.410;17.394;2024-01-15T00:20:02;20.60;28.90
43561;DHT22;32305;46.410;17.394;2024-01-15T00:22:30;20.50;28.90
43561;DHT22;32305;46.410;17.394;2024-01-15T00:24:58;20.50;28.90
43561;DHT22;32305;46.410;17.394;2024-01-15T00:27:25;20.50;28.90
43561;DHT22;32305;46.410;17.394;2024-01-15T00:29:52;20.50;28.90
43561;DHT22;32305;46.410;17.394;2024-01-15T00:32:19;20.50;28.90
43561;DHT22;32305;46.410;17.394;2024-01-15T00:34:46;20.50;28.90
43561;DHT22;32305;46.410;17.394;2024-01-15T00:37:13;20.50;28.90
43561;DHT22;32305;46.410;17.394;2024-01-15T00:39:40;20.50;28.90
43561;DHT22;32305;46.410;17.394;2024-01-15T00:42:09;20.50;29.00
43561;DHT22;32305;46.410;17.394;2024-01-15T00:44:36;20.50;28.90
43561;DHT22;32305;46.410;17.394;2024-01-15T00:47:03;20.50;28.90
43561;DHT22;32305;46.410;17.394;2024-01-15T00:49:30;20.50;28.90
43561;DHT22;32305;46.410;17.394;2024-01-15T00:51:57;20.50;28.90
43561;DHT22;32305;46.410;17.394;2024-01-15T00:54:24;20.50;28.90
43561;DHT22;32305;46.410;17.394;2024-01-15T00:56:51;20.50;28.90
43561;DHT22;32305;46.410;17.394;2024-01-15T00:59:18;20.50;28.90
43561;DHT22;32305;46.410;17.394;2024-01-15T01:01:47;20.50;28.90
43561;DHT22;32305;46.410;17.394;2024-01-15T01:04:14;20.50;28.90
43561;DHT22;32305;46.410;17.394;2024-01-15T01:06:41;20.50;28.90
43561;DHT22;32305;46.410;17.394;2024-01-15T01:09:08;20.50;28.90
43561;DHT22;32305;46.410;17.394;2024-01-15T01:11:35;20.50;28.90
43561;DHT22;32305;46.410;17.394;2024-01-15T01:14:02;20.50;28.90
43561;DHT22;32305;46.410;17.394;2024-01-15T01:16:29;20.50;28.90
43561;DHT22;32305;46.410;17.394;2024-01-15T01:18:57;20.50;28.90
43561;DHT22;32305;46.410;17.394;2024-01-15T01:21:24;20.50;28.80
43561;DHT22;32305;46.410;17.394;2024-01-15T01:23:51;20.50;28.90
43561;DHT22;32305;46.410;17.394;2024-01-15T01:26:18;20.50;28.90
43561;DHT22;32305;46.410;17.394;2024-01-15T01:28:45;20.50;28.90
43561;DHT22;32305;46.410;17.394;2024-01-15T01:31:12;20.50;28.90
43561;DHT22;32305;46.410;17.394;2024-01-15T01:33:39;20.50;28.90
43561;DHT22;32305;46.410;17.394;2024-01-15T01:36:10;20.50;28.90
43561;DHT22;32305;46.410;17.394;2024-01-15T01:38:37;20.40;28.90
43561;DHT22;32305;46.410;17.394;2024-01-15T01:41:04;20.40;28.90
43561;DHT22;32305;46.410;17.394;2024-01-15T01:43:31;20.40;28.90
43561;DHT22;32305;46.410;17.394;2024-01-15T01:45:58;20.40;28.90
43561;DHT22;32305;46.410;17.394;2024-01-15T01:48:27;20.40;28.90
43561;DHT22;32305;46.410;17.394;2024-01-15T01:50:54;20.40;28.90
43561;DHT22;32305;46.410;17.394;2024-01-15T01:53:23;20.40;28.90
43561;DHT22;32305;46.410;17.394;2024-01-15T01:55:50;20.40;28.90
43561;DHT22;32305;46.410;17.394;2024-01-15T01:58:18;20.40;28.90
43561;DHT22;32305;46.410;17.394;2024-01-15T02:00:45;20.40;28.90
43561;DHT22;32305;46.410;17.394;2024-01-15T02:03:13;20.40;28.90
43561;DHT22;32305;46.410;17.394;2024-01-15T02:05:40;20.40;28.90
43561;DHT22;32305;46.410;17.394;2024-01-15T02:08:09;20.40;28.90
43561;DHT22;32305;46.410;17.394;2024-01-15T02:10:36;20.40;28.90
43561;DHT22;32305;46.410;17.394;2024-01-15T02:13:03;20.40;28.90
43561;DHT22;32305;46.410;17.394;2024-01-15T02:15:29;20.40;28.90
43561;DHT22;32305;46.410;17.394;2024-01-15T02:17:57;20.40;28.90
43561;DHT22;32305;46.410;17.394;2024-01-15T02:20:25;20.40;28.90
43561;DHT22;32305;46.410;17.394;2024-01-15T02:22:52;20.50;28.90
43561;DHT22;32305;46.410;17.394;2024-01-15T02:25:19;20.50;28.90
43561;DHT22;32305;46.410;17.394;2024-01-15T02:27:46;20.50;28.90
43561;DHT22;32305;46.410;17.394;2024-01-15T02:30:13;20.50;28.90
43561;DHT22;32305;46.410;17.394;2024-01-15T02:32:41;20.50;28.90
43561;DHT22;32305;46.410;17.394;2024-01-15T02:35:08;20.50;28.90
43561;DHT22;32305;46.410;17.394;2024-01-15T02:37:35;20.40;28.90
43561;DHT22;32305;46.410;17.394;2024-01-15T02:40:02;20.40;28.90
43561;DHT22;32305;46.410;17.394;2024-01-15T02:42:30;20.40;28.90
43561;DHT22;32305;46.410;17.394;2024-01-15T02:44:57;20.40;28.90
43561;DHT22;32305;46.410;17.394;2024-01-15T02:47:24;20.40;28.90
43561;DHT22;32305;46.410;17.394;2024-01-15T02:49:51;20.40;28.90
43561;DHT22;32305;46.410;17.394;2024-01-15T02:52:18;20.40;28.90
43561;DHT22;32305;46.410;17.394;2024-01-15T02:54:44;20.40;29.10
43561;DHT22;32305;46.410;17.394;2024-01-15T02:57:12;20.40;29.40
43561;DHT22;32305;46.410;17.394;2024-01-15T02:59:39;20.40;28.90
43561;DHT22;32305;46.410;17.394;2024-01-15T03:02:05;20.40;28.90
43561;DHT22;32305;46.410;17.394;2024-01-15T03:04:32;20.40;28.90
43561;DHT22;32305;46.410;17.394;2024-01-15T03:06:59;20.40;28.90
43561;DHT22;32305;46.410;17.394;2024-01-15T03:09:26;20.40;28.90
43561;DHT22;32305;46.410;17.394;2024-01-15T03:11:53;20.40;28.90
43561;DHT22;32305;46.410;17.394;2024-01-15T03:14:20;20.40;29.00
43561;DHT22;32305;46.410;17.394;2024-01-15T03:16:47;20.40;28.90
43561;DHT22;32305;46.410;17.394;2024-01-15T03:19:14;20.40;28.90
43561;DHT22;32305;46.410;17.394;2024-01-15T03:21:41;20.40;28.90
43561;DHT22;32305;46.410;17.394;2024-01-15T03:24:08;20.40;28.90
43561;DHT22;32305;46.410;17.394;2024-01-15T03:26:35;20.40;28.90
43561;DHT22;32305;46.410;17.394;2024-01-15T03:29:01;20.40;28.90
43561;DHT22;32305;46.410;17.394;2024-01-15T03:31:28;20.40;28.90
43561;DHT22;32305;46.410;17.394;2024-01-15T03:33:56;20.40;28.90
43561;DHT22;32305;46.410;17.394;2024-01-15T03:36:23;20.40;28.90
43561;DHT22;32305;46.410;17.394;2024-01-15T03:38:50;20.50;29.00
43561;DHT22;32305;46.410;17.394;2024-01-15T03:41:16;20.40;28.90
43561;DHT22;32305;46.410;17.394;2024-01-15T03:43:43;20.40;28.90
43561;DHT22;32305;46.410;17.394;2024-01-15T03:46:10;20.40;28.90
43561;DHT22;32305;46.410;17.394;2024-01-15T03:48:37;20.40;28.90
43561;DHT22;32305;46.410;17.394;2024-01-15T03:51:04;20.40;28.90
43561;DHT22;32305;46.410;17.394;2024-01-15T03:53:31;20.40;29.00
43561;DHT22;32305;46.410;17.394;2024-01-15T03:55:58;20.40;29.00
43561;DHT22;32305;46.410;17.394;2024-01-15T03:58:25;20.40;29.00
43561;DHT22;32305;46.410;17.394;2024-01-15T04:00:52;20.40;29.00
43561;DHT22;32305;46.410;17.394;2024-01-15T04:03:19;20.40;29.00
43561;DHT22;32305;46.410;17.394;2024-01-15T04:05:46;20.40;29.00
43561;DHT22;32305;46.410;17.394;2024-01-15T04:08:13;20.40;29.00
43561;DHT22;32305;46.410;17.394;2024-01-15T04:10:40;20.40;29.00
43561;DHT22;32305;46.410;17.394;2024-01-15T04:13:07;20.40;29.00
43561;DHT22;32305;46.410;17.394;2024-01-15T04:15:34;20.40;29.00
43561;DHT22;32305;46.410;17.394;2024-01-15T04:18:02;20.40;29.00
43561;DHT22;32305;46.410;17.394;2024-01-15T04:20:29;20.40;29.00
43561;DHT22;32305;46.410;17.394;2024-01-15T04:22:55;20.40;29.00
43561;DHT22;32305;46.410;17.394;2024-01-15T04:25:22;20.40;29.00
43561;DHT22;32305;46.410;17.394;2024-01-15T04:27:49;20.40;29.00
43561;DHT22;32305;46.410;17.394;2024-01-15T04:30:16;20.40;29.00
43561;DHT22;32305;46.410;17.394;2024-01-15T04:32:43;20.30;28.90
43561;DHT22;32305;46.410;17.394;2024-01-15T04:35:10;20.40;29.00
43561;DHT22;32305;46.410;17.394;2024-01-15T04:37:39;20.40;28.90
43561;DHT22;32305;46.410;17.394;2024-01-15T04:40:06;20.40;28.80
43561;DHT22;32305;46.410;17.394;2024-01-15T04:42:33;20.40;28.70
43561;DHT22;32305;46.410;17.394;2024-01-15T04:45:00;20.40;28.70
43561;DHT22;32305;46.410;17.394;2024-01-15T04:47:27;20.40;28.70
43561;DHT22;32305;46.410;17.394;2024-01-15T04:49:54;20.40;28.60
43561;DHT22;32305;46.410;17.394;2024-01-15T04:52:21;20.40;28.60
43561;DHT22;32305;46.410;17.394;2024-01-15T04:54:48;20.40;28.70
43561;DHT22;32305;46.410;17.394;2024-01-15T04:57:15;20.40;28.70
43561;DHT22;32305;46.410;17.394;2024-01-15T04:59:42;20.40;28.70
43561;DHT22;32305;46.410;17.394;2024-01-15T05:02:09;20.40;28.80
43561;DHT22;32305;46.410;17.394;2024-01-15T05:04:36;20.40;28.80
43561;DHT22;32305;46.410;17.394;2024-01-15T05:07:03;20.40;28.80
43561;DHT22;32305;46.410;17.394;2024-01-15T05:09:30;20.40;28.80
43561;DHT22;32305;46.410;17.394;2024-01-15T05:11:58;20.40;28.80
43561;DHT22;32305;46.410;17.394;2024-01-15T05:14:26;20.40;28.80
43561;DHT22;32305;46.410;17.394;2024-01-15T05:16:52;20.40;28.80
43561;DHT22;32305;46.410;17.394;2024-01-15T05:19:19;20.50;28.80
43561;DHT22;32305;46.410;17.394;2024-01-15T05:21:47;20.50;28.80
43561;DHT22;32305;46.410;17.394;2024-01-15T05:24:14;20.50;28.80
43561;DHT22;32305;46.410;17.394;2024-01-15T05:26:41;20.50;28.80
43561;DHT22;32305;46.410;17.394;2024-01-15T05:29:07;20.50;28.80
43561;DHT22;32305;46.410;17.394;2024-01-15T05:31:35;20.50;28.80
43561;DHT22;32305;46.410;17.394;2024-01-15T05:34:02;20.50;28.80
43561;DHT22;32305;46.410;17.394;2024-01-15T05:36:30;20.50;29.20
43561;DHT22;32305;46.410;17.394;2024-01-15T05:38:56;20.50;28.80
43561;DHT22;32305;46.410;17.394;2024-01-15T05:41:23;20.60;28.80
43561;DHT22;32305;46.410;17.394;2024-01-15T05:43:50;20.60;28.80
43561;DHT22;32305;46.410;17.394;2024-01-15T05:46:17;20.60;28.90
43561;DHT22;32305;46.410;17.394;2024-01-15T05:48:44;20.60;28.90
43561;DHT22;32305;46.410;17.394;2024-01-15T05:51:12;20.70;28.90
43561;DHT22;32305;46.410;17.394;2024-01-15T05:53:39;20.70;28.90
43561;DHT22;32305;46.410;17.394;2024-01-15T05:56:09;20.70;28.90
43561;DHT22;32305;46.410;17.394;2024-01-15T05:58:37;20.70;28.90
43561;DHT22;32305;46.410;17.394;2024-01-15T06:01:04;20.70;28.90
43561;DHT22;32305;46.410;17.394;2024-01-15T06:03:31;20.80;29.00
43561;DHT22;32305;46.410;17.394;2024-01-15T06:05:58;20.80;29.00
43561;DHT22;32305;46.410;17.394;2024-01-15T06:08:25;20.80;29.00
43561;DHT22;32305;46.410;17.394;2024-01-15T06:10:53;20.80;29.00
43561;DHT22;32305;46.410;17.394;2024-01-15T06:13:23;20.80;29.00
43561;DHT22;32305;46.410;17.394;2024-01-15T06:15:49;20.80;29.00
43561;DHT22;32305;46.410;17.394;2024-01-15T06:18:17;20.90;29.00
43561;DHT22;32305;46.410;17.394;2024-01-15T06:20:44;20.90;29.00
43561;DHT22;32305;46.410;17.394;2024-01-15T06:23:11;20.90;29.00
43561;DHT22;32305;46.410;17.394;2024-01-15T06:25:38;20.90;29.10
43561;DHT22;32305;46.410;17.394;2024-01-15T06:28:06;20.90;29.20
43561;DHT22;32305;46.410;17.394;2024-01-15T06:30:33;21.00;29.40
43561;DHT22;32305;46.410;17.394;2024-01-15T06:33:00;21.00;29.50
43561;DHT22;32305;46.410;17.394;2024-01-15T06:35:27;21.00;29.60
43561;DHT22;32305;46.410;17.394;2024-01-15T06:37:54;21.00;29.60
43561;DHT22;32305;46.410;17.394;2024-01-15T06:40:21;21.10;29.70
43561;DHT22;32305;46.410;17.394;2024-01-15T06:42:48;21.10;29.80
43561;DHT22;32305;46.410;17.394;2024-01-15T06:45:15;21.10;29.90
43561;DHT22;32305;46.410;17.394;2024-01-15T06:47:42;21.20;30.00
43561;DHT22;32305;46.410;17.394;2024-01-15T06:50:09;21.20;30.00
43561;DHT22;32305;46.410;17.394;2024-01-15T06:52:36;21.30;30.00
43561;DHT22;32305;46.410;17.394;2024-01-15T06:55:03;21.30;29.90
43561;DHT22;32305;46.410;17.394;2024-01-15T06:57:30;21.30;30.00
43561;DHT22;32305;46.410;17.394;2024-01-15T06:59:57;21.30;30.00
43561;DHT22;32305;46.410;17.394;2024-01-15T07:02:24;21.40;30.10
43561;DHT22;32305;46.410;17.394;2024-01-15T07:04:51;21.40;30.10
43561;DHT22;32305;46.410;17.394;2024-01-15T07:07:18;21.40;30.10
43561;DHT22;32305;46.410;17.394;2024-01-15T07:09:46;21.50;30.40
43561;DHT22;32305;46.410;17.394;2024-01-15T07:12:13;21.50;30.80
43561;DHT22;32305;46.410;17.394;2024-01-15T07:14:40;21.60;30.90
43561;DHT22;32305;46.410;17.394;2024-01-15T07:17:07;21.60;30.90
43561;DHT22;32305;46.410;17.394;2024-01-15T07:19:34;21.70;31.10
43561;DHT22;32305;46.410;17.394;2024-01-15T07:22:01;21.70;31.10
43561;DHT22;32305;46.410;17.394;2024-01-15T07:24:28;21.70;31.10
43561;DHT22;32305;46.410;17.394;2024-01-15T07:26:55;21.80;31.10
43561;DHT22;32305;46.410;17.394;2024-01-15T07:29:22;21.80;31.10
43561;DHT22;32305;46.410;17.394;2024-01-15T07:31:49;21.80;30.90
43561;DHT22;32305;46.410;17.394;2024-01-15T07:34:17;21.80;30.70
43561;DHT22;32305;46.410;17.394;2024-01-15T07:36:44;21.80;31.20
43561;DHT22;32305;46.410;17.394;2024-01-15T07:39:13;21.80;30.50
43561;DHT22;32305;46.410;17.394;2024-01-15T07:41:40;21.80;30.40
43561;DHT22;32305;46.410;17.394;2024-01-15T07:44:07;21.80;30.40
43561;DHT22;32305;46.410;17.394;2024-01-15T07:46:34;21.80;30.40
43561;DHT22;32305;46.410;17.394;2024-01-15T07:49:02;21.80;30.30
43561;DHT22;32305;46.410;17.394;2024-01-15T07:51:29;21.80;30.30
43561;DHT22;32305;46.410;17.394;2024-01-15T07:53:56;21.80;30.30
43561;DHT22;32305;46.410;17.394;2024-01-15T07:56:23;21.80;30.30
43561;DHT22;32305;46.410;17.394;2024-01-15T07:58:50;21.80;30.30
43561;DHT22;32305;46.410;17.394;2024-01-15T08:01:17;21.80;30.30
43561;DHT22;32305;46.410;17.394;2024-01-15T08:03:44;21.90;30.50
43561;DHT22;32305;46.410;17.394;2024-01-15T08:06:11;21.90;30.50
43561;DHT22;32305;46.410;17.394;2024-01-15T08:08:39;21.90;30.50
43561;DHT22;32305;46.410;17.394;2024-01-15T08:11:05;22.00;30.60
43561;DHT22;32305;46.410;17.394;2024-01-15T08:13:32;22.00;30.40
43561;DHT22;32305;46.410;17.394;2024-01-15T08:15:59;22.10;30.40
43561;DHT22;32305;46.410;17.394;2024-01-15T08:18:26;22.10;30.40
43561;DHT22;32305;46.410;17.394;2024-01-15T08:20:53;22.20;30.50
43561;DHT22;32305;46.410;17.394;2024-01-15T08:23:21;22.20;30.50
43561;DHT22;32305;46.410;17.394;2024-01-15T08:25:48;22.20;30.40
43561;DHT22;32305;46.410;17.394;2024-01-15T08:28:15;22.20;31.00
43561;DHT22;32305;46.410;17.394;2024-01-15T08:30:42;22.20;30.40
43561;DHT22;32305;46.410;17.394;2024-01-15T08:33:09;22.30;30.40
43561;DHT22;32305;46.410;17.394;2024-01-15T08:35:47;22.20;30.40
43561;DHT22;32305;46.410;17.394;2024-01-15T08:38:14;22.30;30.40
43561;DHT22;32305;46.410;17.394;2024-01-15T08:40:41;22.30;30.40
43561;DHT22;32305;46.410;17.394;2024-01-15T08:43:08;22.40;30.40
43561;DHT22;32305;46.410;17.394;2024-01-15T08:45:35;22.40;30.40
43561;DHT22;32305;46.410;17.394;2024-01-15T08:48:02;22.40;30.40
43561;DHT22;32305;46.410;17.394;2024-01-15T08:50:30;22.50;30.40
43561;DHT22;32305;46.410;17.394;2024-01-15T08:52:58;22.50;30.30
43561;DHT22;32305;46.410;17.394;2024-01-15T08:55:25;22.60;30.30
43561;DHT22;32305;46.410;17.394;2024-01-15T08:57:52;22.70;30.40
43561;DHT22;32305;46.410;17.394;2024-01-15T09:00:19;22.80;30.30
43561;DHT22;32305;46.410;17.394;2024-01-15T09:02:46;22.90;30.50
43561;DHT22;32305;46.410;17.394;2024-01-15T09:05:13;23.00;30.40
43561;DHT22;32305;46.410;17.394;2024-01-15T09:07:41;23.00;30.40
43561;DHT22;32305;46.410;17.394;2024-01-15T09:10:08;23.10;30.30
43561;DHT22;32305;46.410;17.394;2024-01-15T09:12:35;23.20;30.30
43561;DHT22;32305;46.410;17.394;2024-01-15T09:15:02;23.30;30.00
43561;DHT22;32305;46.410;17.394;2024-01-15T09:17:31;23.40;30.00
43561;DHT22;32305;46.410;17.394;2024-01-15T09:19:58;23.40;29.80
43561;DHT22;32305;46.410;17.394;2024-01-15T09:22:26;23.50;29.70
43561;DHT22;32305;46.410;17.394;2024-01-15T09:24:53;23.60;29.60
43561;DHT22;32305;46.410;17.394;2024-01-15T09:27:20;23.60;29.50
43561;DHT22;32305;46.410;17.394;2024-01-15T09:29:47;23.70;29.50
43561;DHT22;32305;46.410;17.394;2024-01-15T09:32:14;23.80;29.80
43561;DHT22;32305;46.410;17.394;2024-01-15T09:34:42;23.80;29.40
43561;DHT22;32305;46.410;17.394;2024-01-15T09:37:09;23.90;29.40
43561;DHT22;32305;46.410;17.394;2024-01-15T09:39:44;23.90;29.30
43561;DHT22;32305;46.410;17.394;2024-01-15T09:42:11;23.90;29.30
43561;DHT22;32305;46.410;17.394;2024-01-15T09:44:38;24.00;29.30
43561;DHT22;32305;46.410;17.394;2024-01-15T09:47:05;24.00;29.20
43561;DHT22;32305;46.410;17.394;2024-01-15T09:49:32;24.10;29.20
43561;DHT22;32305;46.410;17.394;2024-01-15T09:51:59;24.20;29.10
43561;DHT22;32305;46.410;17.394;2024-01-15T09:54:37;24.20;29.10
43561;DHT22;32305;46.410;17.394;2024-01-15T09:57:05;24.30;29.10
43561;DHT22;32305;46.410;17.394;2024-01-15T09:59:32;24.30;29.00
43561;DHT22;32305;46.410;17.394;2024-01-15T10:02:00;24.30;28.90
43561;DHT22;32305;46.410;17.394;2024-01-15T10:04:28;24.40;28.90
43561;DHT22;32305;46.410;17.394;2024-01-15T10:06:55;24.50;28.90
43561;DHT22;32305;46.410;17.394;2024-01-15T10:09:23;24.50;28.80
43561;DHT22;32305;46.410;17.394;2024-01-15T10:11:49;24.50;28.70
43561;DHT22;32305;46.410;17.394;2024-01-15T10:14:17;24.60;28.70
43561;DHT22;32305;46.410;17.394;2024-01-15T10:16:44;24.70;28.70
43561;DHT22;32305;46.410;17.394;2024-01-15T10:19:11;24.70;28.80
43561;DHT22;32305;46.410;17.394;2024-01-15T10:21:41;24.80;28.70
43561;DHT22;32305;46.410;17.394;2024-01-15T10:24:07;24.80;28.50
43561;DHT22;32305;46.410;17.394;2024-01-15T10:26:34;24.90;28.50
43561;DHT22;32305;46.410;17.394;2024-01-15T10:29:01;24.90;28.50
43561;DHT22;32305;46.410;17.394;2024-01-15T10:31:28;24.90;28.50
43561;DHT22;32305;46.410;17.394;2024-01-15T10:34:10;25.00;28.50
43561;DHT22;32305;46.410;17.394;2024-01-15T10:36:38;25.00;28.40
43561;DHT22;32305;46.410;17.394;2024-01-15T10:39:06;25.10;28.60
43561;DHT22;32305;46.410;17.394;2024-01-15T10:41:34;25.10;28.50
43561;DHT22;32305;46.410;17.394;2024-01-15T10:44:01;25.10;28.40
43561;DHT22;32305;46.410;17.394;2024-01-15T10:46:28;25.10;28.20
43561;DHT22;32305;46.410;17.394;2024-01-15T10:48:56;25.10;28.20
43561;DHT22;32305;46.410;17.394;2024-01-15T10:51:23;25.10;28.10
43561;DHT22;32305;46.410;17.394;2024-01-15T10:53:50;25.10;28.20
43561;DHT22;32305;46.410;17.394;2024-01-15T10:56:17;25.10;28.10
43561;DHT22;32305;46.410;17.394;2024-01-15T10:58:44;25.00;28.10
43561;DHT22;32305;46.410;17.394;2024-01-15T11:01:12;25.10;28.20
43561;DHT22;32305;46.410;17.394;2024-01-15T11:03:39;25.10;28.20
43561;DHT22;32305;46.410;17.394;2024-01-15T11:06:18;25.10;28.10
43561;DHT22;32305;46.410;17.394;2024-01-15T11:08:48;25.10;28.00
43561;DHT22;32305;46.410;17.394;2024-01-15T11:11:16;25.20;28.10
43561;DHT22;32305;46.410;17.394;2024-01-15T11:13:47;25.20;28.10
43561;DHT22;32305;46.410;17.394;2024-01-15T11:16:17;25.20;28.10
43561;DHT22;32305;46.410;17.394;2024-01-15T11:19:02;25.20;28.10
43561;DHT22;32305;46.410;17.394;2024-01-15T11:21:32;25.20;28.10
43561;DHT22;32305;46.410;17.394;2024-01-15T11:24:00;25.20;28.10
43561;DHT22;32305;46.410;17.394;2024-01-15T11:26:38;25.20;28.10
43561;DHT22;32305;46.410;17.394;2024-01-15T11:29:10;25.20;28.10
43561;DHT22;32305;46.410;17.394;2024-01-15T11:32:02;25.20;28.00
43561;DHT22;32305;46.410;17.394;2024-01-15T11:37:19;25.20;28.00
43561;DHT22;32305;46.410;17.394;2024-01-15T11:39:46;25.30;28.00
43561;DHT22;32305;46.410;17.394;2024-01-15T11:42:14;25.30;28.00
43561;DHT22;32305;46.410;17.394;2024-01-15T11:44:41;25.30;27.90
43561;DHT22;32305;46.410;17.394;2024-01-15T11:47:09;25.30;27.90
43561;DHT22;32305;46.410;17.394;2024-01-15T11:49:58;25.30;27.90
43561;DHT22;32305;46.410;17.394;2024-01-15T11:52:27;25.30;27.80
43561;DHT22;32305;46.410;17.394;2024-01-15T11:55:07;25.40;27.90
43561;DHT22;32305;46.410;17.394;2024-01-15T11:57:45;25.40;27.80
43561;DHT22;32305;46.410;17.394;2024-01-15T12:00:13;25.40;27.80
43561;DHT22;32305;46.410;17.394;2024-01-15T12:02:41;25.40;27.80
43561;DHT22;32305;46.410;17.394;2024-01-15T12:05:09;25.40;27.90
43561;DHT22;32305;46.410;17.394;2024-01-15T12:07:36;25.40;27.80
43561;DHT22;32305;46.410;17.394;2024-01-15T12:10:03;25.40;27.80
43561;DHT22;32305;46.410;17.394;2024-01-15T12:12:39;25.50;27.80
43561;DHT22;32305;46.410;17.394;2024-01-15T12:15:11;25.50;27.80
43561;DHT22;32305;46.410;17.394;2024-01-15T12:17:38;25.50;27.70
43561;DHT22;32305;46.410;17.394;2024-01-15T12:20:05;25.50;27.70
43561;DHT22;32305;46.410;17.394;2024-01-15T12:22:32;25.50;27.70
43561;DHT22;32305;46.410;17.394;2024-01-15T12:25:15;25.50;27.70
43561;DHT22;32305;46.410;17.394;2024-01-15T12:27:42;25.50;27.70
43561;DHT22;32305;46.410;17.394;2024-01-15T12:30:12;25.50;27.70
43561;DHT22;32305;46.410;17.394;2024-01-15T12:32:40;25.50;27.80
43561;DHT22;32305;46.410;17.394;2024-01-15T12:35:09;25.50;27.80
43561;DHT22;32305;46.410;17.394;2024-01-15T12:37:39;25.50;27.80
43561;DHT22;32305;46.410;17.394;2024-01-15T12:40:07;25.50;27.80
43561;DHT22;32305;46.410;17.394;2024-01-15T12:42:36;25.50;27.80
43561;DHT22;32305;46.410;17.394;2024-01-15T12:45:05;25.50;27.90
43561;DHT22;32305;46.410;17.394;2024-01-15T12:47:32;25.50;27.90
43561;DHT22;32305;46.410;17.394;2024-01-15T12:49:59;25.50;27.90
43561;DHT22;32305;46.410;17.394;2024-01-15T12:52:41;25.50;27.90
43561;DHT22;32305;46.410;17.394;2024-01-15T12:55:08;25.50;27.80
43561;DHT22;32305;46.410;17.394;2024-01-15T12:57:35;25.50;27.70
43561;DHT22;32305;46.410;17.394;2024-01-15T13:00:03;25.50;27.70
43561;DHT22;32305;46.410;17.394;2024-01-15T13:02:34;25.50;27.70
43561;DHT22;32305;46.410;17.394;2024-01-15T13:05:01;25.60;27.80
43561;DHT22;32305;46.410;17.394;2024-01-15T13:07:31;25.60;27.70
43561;DHT22;32305;46.410;17.394;2024-01-15T13:09:58;25.60;27.70
43561;DHT22;32305;46.410;17.394;2024-01-15T13:12:25;25.70;27.80
43561;DHT22;32305;46.410;17.394;2024-01-15T13:14:52;25.70;27.70
43561;DHT22;32305;46.410;17.394;2024-01-15T13:17:19;25.70;27.60
43561;DHT22;32305;46.410;17.394;2024-01-15T13:19:48;25.70;27.70
43561;DHT22;32305;46.410;17.394;2024-01-15T13:22:15;25.70;28.10
43561;DHT22;32305;46.410;17.394;2024-01-15T13:24:42;25.70;27.60
43561;DHT22;32305;46.410;17.394;2024-01-15T13:27:10;25.70;27.60
43561;DHT22;32305;46.410;17.394;2024-01-15T13:29:38;25.70;27.60
43561;DHT22;32305;46.410;17.394;2024-01-15T13:32:05;25.70;27.60
43561;DHT22;32305;46.410;17.394;2024-01-15T13:34:32;25.70;27.60
43561;DHT22;32305;46.410;17.394;2024-01-15T13:36:59;25.70;27.60
43561;DHT22;32305;46.410;17.394;2024-01-15T13:39:26;25.60;27.50
43561;DHT22;32305;46.410;17.394;2024-01-15T13:41:53;25.60;27.50
43561;DHT22;32305;46.410;17.394;2024-01-15T13:44:20;25.60;27.60
43561;DHT22;32305;46.410;17.394;2024-01-15T13:46:48;25.60;27.60
43561;DHT22;32305;46.410;17.394;2024-01-15T13:49:15;25.60;27.60
43561;DHT22;32305;46.410;17.394;2024-01-15T13:51:42;25.60;27.50
43561;DHT22;32305;46.410;17.394;2024-01-15T13:54:09;25.60;27.50
43561;DHT22;32305;46.410;17.394;2024-01-15T13:56:36;25.50;27.40
43561;DHT22;32305;46.410;17.394;2024-01-15T13:59:03;25.50;27.40
43561;DHT22;32305;46.410;17.394;2024-01-15T14:01:31;25.50;27.40
43561;DHT22;32305;46.410;17.394;2024-01-15T14:03:58;25.50;27.50
43561;DHT22;32305;46.410;17.394;2024-01-15T14:06:25;25.50;27.40
43561;DHT22;32305;46.410;17.394;2024-01-15T14:08:53;25.40;27.40
43561;DHT22;32305;46.410;17.394;2024-01-15T14:11:20;25.40;27.40
43561;DHT22;32305;46.410;17.394;2024-01-15T14:13:46;25.40;27.50
43561;DHT22;32305;46.410;17.394;2024-01-15T14:16:15;25.40;27.60
43561;DHT22;32305;46.410;17.394;2024-01-15T14:18:51;25.40;27.70
43561;DHT22;32305;46.410;17.394;2024-01-15T14:21:18;25.40;27.60
43561;DHT22;32305;46.410;17.394;2024-01-15T14:23:46;25.40;27.60
43561;DHT22;32305;46.410;17.394;2024-01-15T14:26:13;25.40;28.10
43561;DHT22;32305;46.410;17.394;2024-01-15T14:28:43;25.40;27.70
43561;DHT22;32305;46.410;17.394;2024-01-15T14:31:10;25.50;27.90
43561;DHT22;32305;46.410;17.394;2024-01-15T14:33:37;25.50;27.90
43561;DHT22;32305;46.410;17.394;2024-01-15T14:36:06;25.50;28.10
43561;DHT22;32305;46.410;17.394;2024-01-15T14:38:33;25.60;28.00
43561;DHT22;32305;46.410;17.394;2024-01-15T14:41:00;25.60;28.00
43561;DHT22;32305;46.410;17.394;2024-01-15T14:43:27;25.60;27.90
43561;DHT22;32305;46.410;17.394;2024-01-15T14:45:54;25.60;27.80
43561;DHT22;32305;46.410;17.394;2024-01-15T14:48:21;25.50;27.70
43561;DHT22;32305;46.410;17.394;2024-01-15T14:50:48;25.50;28.00
43561;DHT22;32305;46.410;17.394;2024-01-15T14:53:17;25.40;27.90
43561;DHT22;32305;46.410;17.394;2024-01-15T14:55:44;25.40;27.90
43561;DHT22;32305;46.410;17.394;2024-01-15T14:58:11;25.40;28.00
43561;DHT22;32305;46.410;17.394;2024-01-15T15:00:39;25.30;28.00
43561;DHT22;32305;46.410;17.394;2024-01-15T15:03:06;25.30;28.10
43561;DHT22;32305;46.410;17.394;2024-01-15T15:05:33;25.20;28.10
43561;DHT22;32305;46.410;17.394;2024-01-15T15:08:00;25.20;28.20
43561;DHT22;32305;46.410;17.394;2024-01-15T15:10:29;25.10;28.40
43561;DHT22;32305;46.410;17.394;2024-01-15T15:12:56;25.10;28.40
43561;DHT22;32305;46.410;17.394;2024-01-15T15:15:23;25.00;28.60
43561;DHT22;32305;46.410;17.394;2024-01-15T15:17:51;25.00;28.50
43561;DHT22;32305;46.410;17.394;2024-01-15T15:20:18;25.00;28.80